Weather at Charlevoix Municipal Airport

Public forecast

Using degrees Fahrenheit for public forecast. Weather courtesy of forecast.io.

Current aviation weather report (METAR) for Charlevoix Municipal Airport

Retrieved 2022/01/16 18:35 UTC (19 minutes ago):

KCVX 161835Z AUTO 16008KT 10SM OVC023 M05/M12 A2983 RMK AO2 T10511118

Closest aviation forecast (TAF) to Charlevoix Municipal Airport

Closest forecast is Pellston Regional Airport of Emmet County Airport, 25.7 nm (47.6 km) NE. Retrieved 2022/01/16 18:42 UTC (12 minutes ago):

TAF KPLN 161739Z 1618/1718 18006KT P6SM SCT025 BKN250 TEMPO 1618/1620 BKN025 FM162200 17005KT P6SM VCSH OVC090 FM170300 VRB04KT 4SM BR VCSH OVC045 FM170600 00000KT 5SM BR BKN035 FM170900 VRB03KT P6SM BKN060 FM171000 34008KT P6SM SCT015 BKN060 FM171400 34012G20KT P6SM SCT015 BKN060